Friday, January 19, 2018, 7:36 AM GMT
Back to Local

CWSD, Summerside Automatic Weather Reporting System

Location: , , Canada Lat: 46.433
Local Time: 7:36 AM GMT ( 7:36 GMT) Lon: -63.85
Time Zone: GMT Elev: 78 ft

Show me the last for .
Show Coded

Time T Td Feel RH Dir Speed Gust Alt SLP Vis Weather Sky Remarks
2018-01-19 06:00 12 10 - 93 280° 2 - - 29.77 0 None
2018-01-19 05:00 13 12 7 95 230° 3 - - 29.76 0 None
2018-01-19 04:00 9 6 1 89 240° 5 - - 29.79 0 None
2018-01-19 03:00 12 11 5 93 270° 5 - - 29.78 0 None
2018-01-19 02:00 16 15 5 96 260° 8 - - 29.79 0 None
2018-01-19 01:00 13 9 7 83 290° 3 - - 29.78 0 None
2018-01-19 00:00 16 15 8 96 230° 6 - - 29.78 0 None
2018-01-18 23:00 18 16 - 92 270° 2 - - 29.77 0 1-hr Precip Total: 0.01"
2018-01-18 21:00 24 20 14 84 280° 9 - - 29.76 0 None
2018-01-18 20:00 24 20 12 85 290° 14 - - 29.75 0 Peak wind: 23 mph (20 kts) from 270° at 07 min
2018-01-18 19:00 26 22 12 84 260° 14 20 - 29.75 0 Peak wind: 19 mph (17 kts) from 260° at 49 min
2018-01-18 18:00 26 24 12 90 270° 13 21 - 29.74 0 Peak wind: 20 mph (18 kts) from 270° at 34 min
2018-01-18 17:00 26 24 17 92 250° 9 - - 29.74 0 None
2018-01-18 16:00 25 26 16 103 240° 9 - - 29.77 0 None
2018-01-18 15:00 26 25 18 97 250° 7 - - 29.83 0 None
2018-01-18 14:00 25 24 17 98 260° 7 - - 29.83 0 None
2018-01-18 13:00 25 24 18 97 250° 6 - - 29.82 0 None
2018-01-18 12:00 24 24 - 98 200° 2 - - 29.81 0 None
2018-01-18 11:00 25 24 20 97 330° 3 - - 29.81 0 None
2018-01-18 10:00 26 26 21 98 360° 5 - - 29.83 0 None
2018-01-18 09:00 26 26 20 98 360° 6 - - 29.85 0 1-hr Precip Total: 0.01"
2018-01-18 08:00 27 26 19 98 350° 7 - - 29.86 0 None

Support USWX by starting your Amazon purchase here.